Time;durP1;ratioP1;P1;durP2;ratioP2;P2;SDS_P1;SDS_P2;PMS_P1;PMS_P2;Temp;Humidity;BMP_temperature;BMP_pressure;BME280_temperature;BME280_humidity;BME280_pressure;Samples;Min_cycle;Max_cycle;Signal;HPM_P1;HPM_P2
2021/04/21 00:01:19;;;;;;;1.58;1.48;;;23.10;39.40;;;;;;5031141;28;20186;-77
2021/04/21 00:03:45;;;;;;;2.00;1.50;;;23.10;39.40;;;;;;5032082;28;20056;-78
2021/04/21 00:06:14;;;;;;;2.35;1.67;;;23.10;39.40;;;;;;5031694;28;20024;-77
2021/04/21 00:08:40;;;;;;;2.65;1.35;;;23.10;39.40;;;;;;5036890;28;20527;-76
2021/04/21 00:11:06;;;;;;;3.80;1.73;;;23.10;39.40;;;;;;5056044;28;20044;-76
2021/04/21 00:13:33;;;;;;;3.80;1.77;;;23.00;39.40;;;;;;5044893;28;20383;-77
2021/04/21 00:15:59;;;;;;;3.63;1.52;;;23.00;39.30;;;;;;5050873;28;20032;-77
2021/04/21 00:18:26;;;;;;;2.17;1.70;;;23.00;39.30;;;;;;5045887;28;20143;-77
2021/04/21 00:20:56;;;;;;;3.78;1.80;;;23.00;39.40;;;;;;5031974;28;20029;-77
2021/04/21 00:23:22;;;;;;;2.15;1.40;;;23.00;39.30;;;;;;5046204;28;20028;-77
2021/04/21 00:25:52;;;;;;;3.15;1.67;;;23.00;39.30;;;;;;5030052;28;20067;-77
2021/04/21 00:28:19;;;;;;;1.58;1.48;;;23.00;39.40;;;;;;5016039;28;20104;-78
2021/04/21 00:30:46;;;;;;;2.13;1.85;;;23.00;39.40;;;;;;5048381;28;20494;-78
2021/04/21 00:33:16;;;;;;;1.55;1.13;;;23.00;39.30;;;;;;5049026;28;20040;-79
2021/04/21 00:35:44;;;;;;;2.95;1.33;;;23.00;39.40;;;;;;5048992;28;20036;-78
2021/04/21 00:38:17;;;;;;;2.88;1.70;;;22.90;39.30;;;;;;5033313;28;20021;-78
2021/04/21 00:40:45;;;;;;;1.80;1.38;;;22.90;39.30;;;;;;5029924;28;20029;-78
2021/04/21 00:43:23;;;;;;;1.58;1.48;;;22.90;39.30;;;;;;5045398;28;20017;-79
2021/04/21 00:46:08;;;;;;;3.70;1.85;;;22.90;39.30;;;;;;5050470;28;20095;-78
2021/04/21 00:48:58;;;;;;;1.60;1.30;;;22.90;39.30;;;;;;5047299;28;20083;-79
2021/04/21 00:51:32;;;;;;;1.80;1.67;;;23.00;39.40;;;;;;5047825;28;20040;-79
2021/04/21 00:54:06;;;;;;;1.95;1.63;;;22.90;39.40;;;;;;5043989;28;20033;-78
2021/04/21 00:56:44;;;;;;;1.75;1.38;;;22.90;39.40;;;;;;5047943;28;20029;-78
2021/04/21 00:59:50;;;;;;;2.25;1.50;;;22.90;39.40;;;;;;5049201;28;20667;-78
2021/04/21 01:02:18;;;;;;;2.95;1.08;;;22.90;39.90;;;;;;5031693;28;20036;-78
2021/04/21 01:04:43;;;;;;;1.65;1.20;;;22.90;39.40;;;;;;5031912;28;20029;-78
2021/04/21 01:07:11;;;;;;;1.98;1.75;;;22.90;39.30;;;;;;5031428;28;20029;-78
2021/04/21 01:09:40;;;;;;;2.10;1.45;;;22.90;39.30;;;;;;5049880;28;20052;-78
2021/04/21 01:12:09;;;;;;;1.60;1.50;;;22.90;39.30;;;;;;5043473;28;20067;-79
2021/04/21 01:14:40;;;;;;;1.45;1.02;;;22.90;39.40;;;;;;5029268;28;20029;-79
2021/04/21 01:17:08;;;;;;;2.55;1.90;;;22.90;39.40;;;;;;5015886;28;20083;-79
2021/04/21 01:19:44;;;;;;;1.70;1.35;;;22.80;39.30;;;;;;5046004;28;20441;-79
2021/04/21 01:22:47;;;;;;;1.98;1.50;;;22.80;39.30;;;;;;5043316;28;20462;-79
2021/04/21 01:25:18;;;;;;;2.95;1.70;;;22.80;39.30;;;;;;5042605;28;20072;-79
2021/04/21 01:28:02;;;;;;;2.17;1.45;;;22.80;39.50;;;;;;5038638;28;20121;-79
2021/04/21 01:30:30;;;;;;;1.85;1.05;;;22.80;39.30;;;;;;5022438;28;20032;-79
2021/04/21 01:32:59;;;;;;;1.63;1.52;;;22.80;39.30;;;;;;5025408;28;20117;-78
2021/04/21 01:35:28;;;;;;;2.95;1.60;;;22.80;39.30;;;;;;5042214;28;20059;-78
2021/04/21 01:37:57;;;;;;;2.30;1.63;;;22.80;39.20;;;;;;5032540;28;20102;-78
2021/04/21 01:40:35;;;;;;;1.63;1.30;;;22.80;39.30;;;;;;5028414;28;20036;-79
2021/04/21 01:43:23;;;;;;;1.35;1.25;;;22.80;39.30;;;;;;5030099;28;20043;-79
2021/04/21 01:45:54;;;;;;;2.15;1.42;;;22.80;39.30;;;;;;5024098;28;20021;-78
2021/04/21 01:48:23;;;;;;;2.80;1.27;;;22.80;39.30;;;;;;5043207;28;20036;-80
2021/04/21 01:50:50;;;;;;;2.58;1.15;;;22.70;39.20;;;;;;5033061;28;20033;-78
2021/04/21 01:53:34;;;;;;;1.33;1.23;;;22.70;39.20;;;;;;5047784;28;20115;-79
2021/04/21 01:56:14;;;;;;;1.50;1.33;;;22.70;39.20;;;;;;5023659;28;20025;-78
2021/04/21 01:59:03;;;;;;;1.93;1.63;;;22.70;39.20;;;;;;5043647;28;20576;-80
2021/04/21 02:01:58;;;;;;;1.60;1.50;;;22.70;39.20;;;;;;5041625;28;20032;-78
2021/04/21 02:04:41;;;;;;;2.08;1.52;;;22.70;39.20;;;;;;5037254;28;20481;-78
2021/04/21 02:07:30;;;;;;;1.65;1.40;;;22.70;39.20;;;;;;5038298;28;20028;-78
2021/04/21 02:10:43;;;;;;;2.13;1.23;;;22.70;39.20;;;;;;5029117;28;20647;-78
2021/04/21 02:13:31;;;;;;;1.52;1.40;;;22.70;39.20;;;;;;4958882;28;20462;-78
2021/04/21 02:16:24;;;;;;;2.20;1.67;;;22.70;39.20;;;;;;5050878;28;20033;-79
2021/04/21 02:19:19;;;;;;;2.70;1.60;;;22.70;39.20;;;;;;5039602;28;20099;-78
2021/04/21 02:21:53;;;;;;;1.30;1.20;;;22.70;39.20;;;;;;5039965;28;20460;-78
2021/04/21 02:24:40;;;;;;;1.98;1.17;;;22.70;39.20;;;;;;5050447;28;20032;-78
2021/04/21 02:27:05;;;;;;;1.30;1.20;;;22.70;39.20;;;;;;5039132;28;20022;-78
2021/04/21 02:30:04;;;;;;;1.42;1.33;;;22.70;39.20;;;;;;5032429;28;20121;-78
2021/04/21 02:32:35;;;;;;;0.90;0.75;;;22.70;39.20;;;;;;5042978;28;20562;-78
2021/04/21 02:35:16;;;;;;;1.52;1.30;;;22.60;39.10;;;;;;5042523;28;20052;-79
2021/04/21 02:37:54;;;;;;;4.32;1.38;;;22.60;39.20;;;;;;5031334;28;20063;-78
2021/04/21 02:40:46;;;;;;;2.25;1.20;;;22.60;39.20;;;;;;5032236;28;20041;-78
2021/04/21 02:43:19;;;;;;;;;;;22.60;39.20;;;;;;5029639;28;20735;-78
2021/04/21 02:46:14;;;;;;;2.05;1.50;;;22.60;39.10;;;;;;5048710;28;19919;-78
2021/04/21 02:49:20;;;;;;;3.05;1.42;;;22.60;39.10;;;;;;5018945;28;20544;-79
2021/04/21 02:51:45;;;;;;;1.50;1.20;;;22.60;39.20;;;;;;5040880;28;20029;-79
2021/04/21 02:54:19;;;;;;;2.88;1.38;;;22.60;39.10;;;;;;5050757;28;20032;-78
2021/04/21 02:57:06;;;;;;;1.30;1.02;;;22.60;39.10;;;;;;5031710;28;20059;-79
2021/04/21 02:59:52;;;;;;;1.75;1.30;;;22.60;39.10;;;;;;5033740;28;20167;-78
2021/04/21 03:02:41;;;;;;;1.67;1.40;;;22.60;39.10;;;;;;5050604;28;20041;-78
2021/04/21 03:05:14;;;;;;;1.33;1.20;;;22.60;39.20;;;;;;5050649;28;20033;-76
2021/04/21 03:07:57;;;;;;;1.85;1.35;;;22.60;39.10;;;;;;5044516;28;20098;-76
2021/04/21 03:10:44;;;;;;;3.17;1.58;;;22.60;39.10;;;;;;5046558;28;20513;-76
2021/04/21 03:13:19;;;;;;;1.42;1.33;;;22.60;39.10;;;;;;5041134;28;20037;-76
2021/04/21 03:15:50;;;;;;;1.45;1.02;;;22.50;39.10;;;;;;5029241;28;20032;-76
2021/04/21 03:18:19;;;;;;;1.30;1.20;;;22.50;39.10;;;;;;5018645;28;20024;-76
2021/04/21 03:20:50;;;;;;;1.48;0.90;;;22.50;39.10;;;;;;5035220;28;20072;-76
2021/04/21 03:23:17;;;;;;;;;;;22.50;39.10;;;;;;5028764;28;20092;-76
2021/04/21 03:25:45;;;;;;;1.35;1.20;;;22.50;39.10;;;;;;5045628;28;20460;-76
2021/04/21 03:28:13;;;;;;;1.88;1.27;;;22.50;39.00;;;;;;5043403;28;20513;-76
2021/04/21 03:30:42;;;;;;;1.50;1.40;;;22.50;39.10;;;;;;5032519;28;20029;-76
2021/04/21 03:33:27;;;;;;;1.73;1.30;;;22.50;39.10;;;;;;5032091;28;20025;-76
2021/04/21 03:35:53;;;;;;;2.13;1.30;;;22.50;39.10;;;;;;5042788;28;20036;-76
2021/04/21 03:38:21;;;;;;;3.28;1.40;;;22.50;39.00;;;;;;5050961;28;20037;-75
2021/04/21 03:40:47;;;;;;;1.30;1.10;;;22.50;39.10;;;;;;5030548;28;20082;-76
2021/04/21 03:43:13;;;;;;;1.70;1.38;;;22.50;39.00;;;;;;5029629;28;20461;-76
2021/04/21 03:45:41;;;;;;;1.70;1.10;;;22.50;39.10;;;;;;5030980;28;20029;-75
2021/04/21 03:48:07;;;;;;;1.60;1.50;;;22.50;39.10;;;;;;5048547;28;20097;-75
2021/04/21 03:50:35;;;;;;;2.00;1.33;;;22.50;39.10;;;;;;5043671;28;20116;-76
2021/04/21 03:53:09;;;;;;;1.52;1.30;;;22.50;39.10;;;;;;5044387;28;20505;-76
2021/04/21 03:55:35;;;;;;;1.48;1.25;;;22.50;39.10;;;;;;5038695;28;20553;-75
2021/04/21 03:58:13;;;;;;;1.88;1.42;;;22.40;39.00;;;;;;5034349;28;21194;-76
2021/04/21 04:00:41;;;;;;;2.40;1.25;;;22.40;39.00;;;;;;5046456;28;20422;-75
2021/04/21 04:03:14;;;;;;;2.83;1.10;;;22.40;39.00;;;;;;5031889;28;20021;-75
2021/04/21 04:06:05;;;;;;;2.47;1.05;;;22.40;39.00;;;;;;5042000;28;20029;-75
2021/04/21 04:08:46;;;;;;;1.20;1.10;;;22.40;39.00;;;;;;5029855;28;20032;-76
2021/04/21 04:11:16;;;;;;;1.55;0.90;;;22.40;39.00;;;;;;5037000;28;20073;-75
2021/04/21 04:13:48;;;;;;;1.33;1.00;;;22.40;39.00;;;;;;5025180;28;20029;-75
2021/04/21 04:16:14;;;;;;;1.77;1.42;;;22.40;39.00;;;;;;5028622;28;20155;-75
2021/04/21 04:18:41;;;;;;;1.30;1.02;;;22.40;39.00;;;;;;5048758;28;20514;-76
2021/04/21 04:21:09;;;;;;;1.85;1.23;;;22.40;39.00;;;;;;5045335;28;20028;-75
2021/04/21 04:23:41;;;;;;;1.98;1.25;;;22.40;39.00;;;;;;5049063;28;20025;-76
2021/04/21 04:26:08;;;;;;;1.90;1.65;;;22.40;39.00;;;;;;5028936;28;20025;-75
2021/04/21 04:28:35;;;;;;;3.05;0.82;;;22.40;39.10;;;;;;5023550;28;20029;-75
2021/04/21 04:31:03;;;;;;;1.65;1.13;;;22.40;39.10;;;;;;5022724;28;20033;-75
2021/04/21 04:33:29;;;;;;;1.55;1.42;;;22.40;39.00;;;;;;5038705;28;20116;-76
2021/04/21 04:35:55;;;;;;;1.45;1.17;;;22.40;39.00;;;;;;5039525;28;20048;-75
2021/04/21 04:38:21;;;;;;;2.00;1.20;;;22.40;39.00;;;;;;5029466;28;20043;-75
2021/04/21 04:40:53;;;;;;;1.83;1.08;;;22.30;38.90;;;;;;5048536;28;20029;-76
2021/04/21 04:43:21;;;;;;;1.83;1.25;;;22.30;39.00;;;;;;5034635;28;20669;-76
2021/04/21 04:45:55;;;;;;;1.40;1.08;;;22.30;39.00;;;;;;5043383;28;20475;-76
2021/04/21 04:48:27;;;;;;;1.52;1.13;;;22.40;39.00;;;;;;5048981;28;20469;-75
2021/04/21 04:50:57;;;;;;;1.30;1.10;;;22.30;38.90;;;;;;5047401;28;20044;-76
2021/04/21 04:53:23;;;;;;;1.30;1.20;;;22.30;39.00;;;;;;5045473;28;20505;-75
2021/04/21 04:55:50;;;;;;;1.00;0.90;;;22.30;39.00;;;;;;5004711;28;20159;-78
2021/04/21 04:58:20;;;;;;;1.60;1.30;;;22.30;38.90;;;;;;5050664;28;20044;-76
2021/04/21 05:00:49;;;;;;;3.05;1.23;;;22.30;39.00;;;;;;5046987;28;20025;-75
2021/04/21 05:03:22;;;;;;;2.05;1.10;;;22.30;39.00;;;;;;5041548;28;20514;-76
2021/04/21 05:06:10;;;;;;;1.45;1.35;;;22.30;39.00;;;;;;5041148;28;20505;-76
2021/04/21 05:08:43;;;;;;;1.20;1.10;;;22.30;38.90;;;;;;5046130;28;20028;-77
2021/04/21 05:11:11;;;;;;;1.00;0.82;;;22.30;39.00;;;;;;5032586;28;20028;-76
2021/04/21 05:13:48;;;;;;;1.85;1.20;;;22.30;38.90;;;;;;5052610;28;20041;-76
2021/04/21 05:16:28;;;;;;;1.13;1.00;;;22.30;39.00;;;;;;5075512;28;20028;-76
2021/04/21 05:19:26;;;;;;;1.80;1.35;;;22.30;38.90;;;;;;5071162;28;20111;-76
2021/04/21 05:22:19;;;;;;;1.70;1.08;;;22.30;38.90;;;;;;5056957;28;20025;-75
2021/04/21 05:25:12;;;;;;;1.38;1.27;;;22.20;38.90;;;;;;5069004;28;20029;-77
2021/04/21 05:27:57;;;;;;;1.50;1.05;;;22.30;38.90;;;;;;5036345;28;20029;-80
2021/04/21 05:30:44;;;;;;;1.70;1.45;;;22.30;38.90;;;;;;5049640;28;20090;-79
2021/04/21 05:33:15;;;;;;;1.73;1.40;;;22.30;38.90;;;;;;5050628;28;20032;-80
2021/04/21 05:36:19;;;;;;;2.63;1.10;;;22.30;38.90;;;;;;5052756;28;20036;-80
2021/04/21 05:39:16;;;;;;;1.13;0.73;;;22.30;38.90;;;;;;5054384;28;20033;-80
2021/04/21 05:42:17;;;;;;;4.45;1.15;;;22.30;38.90;;;;;;5047963;28;20108;-79
2021/04/21 05:45:21;;;;;;;3.00;1.15;;;22.30;38.90;;;;;;5041836;28;20037;-79
2021/04/21 05:48:24;;;;;;;1.17;1.00;;;22.30;38.90;;;;;;5023344;28;20090;-79
2021/04/21 05:51:19;;;;;;;1.20;1.10;;;22.30;38.90;;;;;;5028512;28;20098;-78
2021/04/21 05:54:03;;;;;;;1.60;1.50;;;22.20;38.90;;;;;;4973574;28;20412;-80
2021/04/21 05:56:31;;;;;;;1.90;1.50;;;22.30;38.90;;;;;;5030540;28;20382;-78
2021/04/21 05:59:34;;;;;;;1.67;1.08;;;22.20;38.80;;;;;;5035160;28;20041;-79
2021/04/21 06:02:02;;;;;;;1.02;0.93;;;22.30;38.90;;;;;;5049617;28;20043;-79
2021/04/21 06:04:28;;;;;;;2.08;1.50;;;22.20;38.80;;;;;;5043487;28;20048;-79
2021/04/21 06:07:13;;;;;;;1.27;1.13;;;22.30;38.90;;;;;;5033851;28;20044;-79
2021/04/21 06:09:39;;;;;;;1.50;1.40;;;22.30;38.90;;;;;;5052377;28;20510;-79
2021/04/21 06:12:13;;;;;;;1.60;0.77;;;22.30;38.90;;;;;;5046881;28;20111;-78
2021/04/21 06:14:39;;;;;;;1.17;1.08;;;22.40;38.70;;;;;;5049303;28;20528;-78
2021/04/21 06:17:05;;;;;;;2.05;1.00;;;22.50;38.50;;;;;;5046365;28;20095;-79
2021/04/21 06:19:31;;;;;;;1.98;0.90;;;22.60;38.40;;;;;;5037872;28;20041;-79
2021/04/21 06:21:58;;;;;;;1.42;1.15;;;22.80;38.30;;;;;;5032850;28;20025;-78
2021/04/21 06:24:26;;;;;;;1.50;1.13;;;22.90;38.10;;;;;;5048264;28;20047;-78
2021/04/21 06:27:06;;;;;;;1.20;1.05;;;22.90;37.90;;;;;;5047427;28;20025;-78
2021/04/21 06:29:31;;;;;;;1.70;1.10;;;23.00;37.80;;;;;;5052029;28;20397;-78
2021/04/21 06:32:01;;;;;;;1.58;0.70;;;23.10;37.80;;;;;;5033718;28;20037;-78
2021/04/21 06:34:27;;;;;;;1.50;1.08;;;23.10;37.70;;;;;;5050294;28;20640;-78
2021/04/21 06:36:57;;;;;;;1.20;0.80;;;23.10;37.70;;;;;;5050244;28;20087;-78
2021/04/21 06:39:24;;;;;;;1.47;0.87;;;23.10;37.70;;;;;;5031633;28;20042;-78
2021/04/21 06:42:00;;;;;;;0.80;0.63;;;23.10;37.70;;;;;;5049102;28;20044;-79
2021/04/21 06:44:46;;;;;;;1.55;0.98;;;23.10;37.70;;;;;;5032355;28;20021;-79
2021/04/21 06:47:19;;;;;;;1.75;0.93;;;23.10;37.70;;;;;;5051708;28;20028;-78
2021/04/21 06:49:45;;;;;;;1.58;0.95;;;23.10;37.70;;;;;;5055489;28;20120;-79
2021/04/21 06:52:15;;;;;;;2.47;0.80;;;23.10;37.80;;;;;;5032970;28;20052;-79
2021/04/21 06:54:41;;;;;;;1.48;1.00;;;23.10;37.80;;;;;;5054642;28;20665;-78
2021/04/21 06:57:07;;;;;;;1.55;0.98;;;23.10;37.80;;;;;;5050872;28;20025;-79
2021/04/21 06:59:33;;;;;;;2.05;1.13;;;23.10;37.90;;;;;;5047126;28;20031;-78
2021/04/21 07:01:58;;;;;;;1.35;1.25;;;23.10;37.90;;;;;;5050513;28;20036;-79
2021/04/21 07:04:24;;;;;;;1.88;1.25;;;23.10;37.90;;;;;;5048013;28;20041;-80
2021/04/21 07:06:50;;;;;;;1.48;1.13;;;23.00;37.90;;;;;;5048312;28;20021;-77
2021/04/21 07:09:21;;;;;;;2.38;1.20;;;23.10;38.20;;;;;;5051451;28;20032;-81
2021/04/21 07:11:58;;;;;;;1.80;1.05;;;23.20;38.40;;;;;;5033226;28;20021;-81
2021/04/21 07:14:24;;;;;;;1.50;1.15;;;23.20;38.40;;;;;;5012946;28;20025;-79
2021/04/21 07:16:54;;;;;;;2.03;1.27;;;23.30;38.60;;;;;;5027500;28;20033;-74
2021/04/21 07:19:22;;;;;;;1.52;0.93;;;23.20;38.80;;;;;;5040306;28;20029;-73
2021/04/21 07:21:48;;;;;;;2.88;1.27;;;23.20;39.00;;;;;;5025600;28;20033;-74
2021/04/21 07:24:16;;;;;;;2.20;1.63;;;23.20;39.00;;;;;;5041151;28;20033;-75
2021/04/21 07:26:45;;;;;;;1.92;1.45;;;23.20;39.10;;;;;;5042358;28;20171;-75
2021/04/21 07:29:23;;;;;;;1.73;1.40;;;23.30;39.00;;;;;;5042154;28;20081;-75
2021/04/21 07:31:50;;;;;;;2.35;1.45;;;23.20;38.90;;;;;;5040884;28;20426;-76
2021/04/21 07:34:31;;;;;;;4.20;2.00;;;23.30;39.30;;;;;;5042218;28;20097;-76
2021/04/21 07:36:58;;;;;;;1.50;1.02;;;23.30;39.40;;;;;;5044704;28;20036;-74
2021/04/21 07:39:38;;;;;;;3.40;1.23;;;23.30;38.80;;;;;;5045928;28;20029;-76
2021/04/21 07:42:14;;;;;;;5.00;1.23;;;23.30;38.90;;;;;;5032790;28;20758;-76
2021/04/21 07:44:51;;;;;;;2.15;1.17;;;23.40;39.20;;;;;;5049794;28;20021;-76
2021/04/21 07:47:20;;;;;;;1.50;1.17;;;23.40;39.30;;;;;;5053262;28;20067;-77
2021/04/21 07:49:54;;;;;;;1.85;1.30;;;23.40;39.10;;;;;;5039702;28;20056;-77
2021/04/21 07:52:29;;;;;;;2.13;1.40;;;23.40;38.90;;;;;;5031849;28;20041;-80
2021/04/21 07:55:17;;;;;;;2.28;1.23;;;23.30;38.90;;;;;;5067448;28;20013;-79
2021/04/21 07:57:55;;;;;;;2.28;1.17;;;23.40;39.10;;;;;;5055664;28;20404;-80
2021/04/21 08:00:26;;;;;;;4.20;1.40;;;23.40;39.40;;;;;;5055623;28;20639;-78
2021/04/21 08:02:52;;;;;;;2.50;1.33;;;23.40;39.10;;;;;;5051629;28;20032;-77
2021/04/21 08:05:18;;;;;;;1.73;1.13;;;23.40;39.20;;;;;;5056056;28;20612;-76
2021/04/21 08:08:01;;;;;;;1.42;1.33;;;23.40;39.30;;;;;;5032974;28;20078;-78
2021/04/21 08:10:29;;;;;;;1.98;0.93;;;23.40;39.50;;;;;;5037137;28;20031;-77
2021/04/21 08:12:57;;;;;;;6.60;1.77;;;23.40;39.40;;;;;;5044850;28;20550;-76
2021/04/21 08:15:30;;;;;;;5.40;1.33;;;23.40;39.60;;;;;;5053375;28;20508;-75
2021/04/21 08:18:00;;;;;;;2.58;1.77;;;23.40;39.10;;;;;;5047691;28;20131;-75
2021/04/21 08:20:28;;;;;;;5.65;1.95;;;23.50;39.00;;;;;;5026842;28;20041;-76
2021/04/21 08:22:56;;;;;;;3.22;1.35;;;23.40;38.90;;;;;;5052821;28;20268;-78
2021/04/21 08:25:40;;;;;;;4.43;1.80;;;23.50;39.30;;;;;;5030663;28;20591;-78
2021/04/21 08:28:09;;;;;;;3.05;1.58;;;23.40;39.40;;;;;;5033823;28;20030;-78
2021/04/21 08:30:35;;;;;;;4.95;1.55;;;23.50;39.50;;;;;;5054373;28;20379;-76
2021/04/21 08:33:02;;;;;;;2.28;1.20;;;23.40;39.20;;;;;;5048466;28;20032;-78
2021/04/21 08:35:28;;;;;;;1.50;1.40;;;23.50;39.10;;;;;;5049246;28;20416;-79
2021/04/21 08:37:53;;;;;;;6.40;1.50;;;23.50;39.00;;;;;;5050427;28;20036;-79
2021/04/21 08:40:21;;;;;;;5.43;1.08;;;23.50;38.90;;;;;;5033127;28;20115;-77
2021/04/21 08:42:54;;;;;;;1.45;1.17;;;23.60;39.50;;;;;;5057471;28;20086;-78
2021/04/21 08:45:20;;;;;;;3.67;1.30;;;23.60;39.50;;;;;;5047404;28;20072;-76
2021/04/21 08:47:47;;;;;;;3.40;1.60;;;23.50;39.90;;;;;;5059082;28;20028;-78
2021/04/21 08:50:16;;;;;;;2.90;1.33;;;23.50;40.00;;;;;;5050589;28;20108;-77
2021/04/21 08:52:49;;;;;;;3.50;1.85;;;23.50;40.00;;;;;;5033568;28;20695;-76
2021/04/21 08:55:16;;;;;;;3.17;1.70;;;23.60;39.70;;;;;;5033605;28;20029;-74
2021/04/21 08:57:46;;;;;;;5.35;1.92;;;23.60;40.20;;;;;;5050717;28;20226;-76
2021/04/21 09:00:20;;;;;;;1.77;1.33;;;23.60;40.20;;;;;;5037673;28;20032;-78
2021/04/21 09:02:46;;;;;;;2.00;1.33;;;23.60;40.30;;;;;;5044883;28;20029;-80
2021/04/21 09:05:14;;;;;;;3.83;1.75;;;23.60;40.50;;;;;;5045309;28;20025;-78
2021/04/21 09:07:40;;;;;;;3.25;1.63;;;23.60;40.00;;;;;;5047231;28;20033;-79
2021/04/21 09:10:08;;;;;;;2.65;1.45;;;23.70;40.50;;;;;;5050059;28;20021;-79
2021/04/21 09:12:33;;;;;;;2.55;1.55;;;23.70;40.60;;;;;;5020639;28;20721;-79
2021/04/21 09:14:59;;;;;;;1.98;1.05;;;23.80;40.90;;;;;;5051235;28;20037;-76
2021/04/21 09:17:25;;;;;;;5.28;1.52;;;23.70;40.90;;;;;;5047309;28;20124;-78
2021/04/21 09:19:51;;;;;;;2.22;1.48;;;23.70;40.80;;;;;;5036233;28;20083;-75
2021/04/21 09:22:17;;;;;;;2.42;1.27;;;;;;;;;;5054337;28;20086;-77
2021/04/21 09:24:43;;;;;;;2.33;1.65;;;23.70;40.00;;;;;;5072387;28;20056;-78
2021/04/21 09:27:35;;;;;;;2.95;1.40;;;23.70;40.80;;;;;;5064497;28;20059;-79
2021/04/21 09:30:16;;;;;;;2.95;1.60;;;23.70;40.70;;;;;;5043909;28;20389;-78
2021/04/21 09:32:55;;;;;;;1.60;1.02;;;23.60;40.50;;;;;;5048537;28;20036;-78
2021/04/21 09:35:25;;;;;;;1.98;1.50;;;23.60;40.30;;;;;;5053181;28;20107;-80
2021/04/21 09:38:06;;;;;;;2.05;1.50;;;23.60;39.90;;;;;;5038537;28;20036;-80
2021/04/21 09:40:41;;;;;;;3.70;1.67;;;23.60;39.90;;;;;;5021261;28;20033;-79
2021/04/21 09:43:14;;;;;;;2.00;1.55;;;23.70;39.60;;;;;;5058918;28;20174;-83
2021/04/21 09:45:48;;;;;;;3.75;1.60;;;23.70;39.40;;;;;;5053648;28;20057;-81
2021/04/21 09:48:27;;;;;;;2.78;1.60;;;23.70;39.90;;;;;;5028287;28;20102;-78
2021/04/21 09:51:02;;;;;;;4.32;1.70;;;23.70;40.10;;;;;;5037355;28;20037;-78
2021/04/21 09:53:30;;;;;;;8.10;1.40;;;23.70;40.10;;;;;;5053825;28;20021;-77
2021/04/21 09:56:06;;;;;;;2.10;1.00;;;23.70;39.80;;;;;;5052613;28;20037;-78
2021/04/21 09:58:31;;;;;;;3.08;1.35;;;23.70;40.30;;;;;;5051607;28;20574;-77
2021/04/21 10:00:58;;;;;;;1.52;0.80;;;23.70;40.20;;;;;;5055170;28;20033;-79
2021/04/21 10:03:23;;;;;;;1.55;1.20;;;23.70;40.30;;;;;;5035099;28;20045;-78
2021/04/21 10:05:49;;;;;;;3.65;1.15;;;23.70;40.60;;;;;;5050090;28;20082;-78
2021/04/21 10:08:15;;;;;;;5.10;1.35;;;23.70;40.60;;;;;;5054471;28;20021;-78
2021/04/21 10:10:43;;;;;;;1.95;1.25;;;23.70;40.80;;;;;;5033163;28;20044;-77
2021/04/21 10:13:20;;;;;;;2.08;1.23;;;23.80;40.90;;;;;;5053248;28;20055;-78
2021/04/21 10:15:49;;;;;;;2.53;1.00;;;23.80;41.00;;;;;;5038645;28;20039;-79
2021/04/21 10:18:16;;;;;;;2.55;1.48;;;23.80;41.20;;;;;;5032161;28;20666;-79
2021/04/21 10:20:44;;;;;;;1.98;1.10;;;23.80;41.20;;;;;;5050763;28;20576;-80
2021/04/21 10:23:13;;;;;;;2.58;1.33;;;23.90;41.20;;;;;;5053363;28;20060;-78
2021/04/21 10:25:40;;;;;;;1.70;1.33;;;23.90;41.20;;;;;;5053176;28;20040;-77
2021/04/21 10:28:07;;;;;;;1.48;1.17;;;23.90;41.30;;;;;;5060874;28;20086;-79
2021/04/21 10:30:32;;;;;;;2.90;0.98;;;23.90;41.30;;;;;;5039927;28;20039;-78
2021/04/21 10:33:00;;;;;;;3.08;0.90;;;23.90;41.00;;;;;;5049668;28;20088;-78
2021/04/21 10:35:27;;;;;;;3.40;1.23;;;24.00;40.50;;;;;;5059715;28;20409;-78
2021/04/21 10:37:53;;;;;;;3.17;1.35;;;24.00;40.00;;;;;;5044800;28;20104;-78
2021/04/21 10:40:28;;;;;;;4.40;1.33;;;23.90;40.70;;;;;;5059354;28;20064;-77
2021/04/21 10:43:02;;;;;;;2.90;0.93;;;24.00;40.30;;;;;;5036825;28;20064;-76
2021/04/21 10:45:29;;;;;;;2.38;0.70;;;24.00;40.10;;;;;;5052896;28;20092;-78
2021/04/21 10:47:57;;;;;;;3.22;1.55;;;24.00;38.60;;;;;;5035012;28;20094;-77
2021/04/21 10:50:38;;;;;;;2.88;0.73;;;24.00;38.30;;;;;;5038671;28;20037;-78
2021/04/21 10:53:05;;;;;;;3.13;0.60;;;24.00;39.70;;;;;;5041683;28;20021;-77
2021/04/21 10:55:32;;;;;;;5.10;1.27;;;24.00;38.30;;;;;;5052594;28;20084;-77
2021/04/21 10:58:00;;;;;;;1.98;0.80;;;24.00;38.00;;;;;;5034719;28;20025;-77
2021/04/21 11:00:35;;;;;;;1.88;0.70;;;24.00;38.90;;;;;;5034872;28;20021;-77
2021/04/21 11:03:11;;;;;;;3.28;0.80;;;24.00;39.10;;;;;;5036687;28;20119;-78
2021/04/21 11:05:37;;;;;;;2.03;0.70;;;24.00;38.70;;;;;;5037406;28;20053;-78
2021/04/21 11:08:06;;;;;;;6.30;0.60;;;24.00;38.20;;;;;;5032963;28;20073;-77
2021/04/21 11:10:54;;;;;;;1.48;0.80;;;24.00;38.70;;;;;;5055388;28;20057;-77
2021/04/21 11:13:47;;;;;;;1.67;0.60;;;24.00;38.30;;;;;;5055580;28;20041;-79
2021/04/21 11:16:12;;;;;;;1.05;0.45;;;24.00;38.10;;;;;;5042496;28;20174;-80
2021/04/21 11:18:40;;;;;;;3.35;0.82;;;24.10;37.70;;;;;;5046670;28;20091;-77
2021/04/21 11:21:10;;;;;;;1.08;0.40;;;24.10;38.00;;;;;;5051594;28;20036;-79
2021/04/21 11:24:03;;;;;;;3.45;0.50;;;24.10;37.80;;;;;;5059947;28;20044;-77
2021/04/21 11:26:30;;;;;;;0.98;0.57;;;24.10;37.90;;;;;;5056551;28;20024;-79
2021/04/21 11:29:09;;;;;;;2.35;0.88;;;24.10;38.00;;;;;;5036955;28;20028;-77
2021/04/21 11:34:17;;;;;;;2.83;0.50;;;24.10;38.20;;;;;;5050642;28;20033;-77
2021/04/21 11:37:00;;;;;;;1.00;0.55;;;24.00;36.40;;;;;;5047387;28;20073;-77
2021/04/21 11:39:41;;;;;;;2.35;0.50;;;24.00;37.70;;;;;;5019532;28;20124;-77
2021/04/21 11:42:23;;;;;;;1.40;0.63;;;24.00;36.20;;;;;;5056014;28;20033;-78
2021/04/21 11:44:51;;;;;;;;;;;24.00;36.50;;;;;;5049076;28;20040;-79
2021/04/21 11:47:46;;;;;;;1.98;0.52;;;24.10;37.10;;;;;;5026811;28;19908;-80
2021/04/21 11:50:26;;;;;;;1.67;0.70;;;24.10;37.80;;;;;;4997110;28;20037;-80
2021/04/21 11:52:54;;;;;;;1.58;0.60;;;24.10;37.70;;;;;;5050006;28;20445;-80
2021/04/21 11:55:31;;;;;;;1.25;0.50;;;24.10;37.50;;;;;;5034160;28;20025;-78
2021/04/21 11:57:58;;;;;;;3.40;0.52;;;24.10;37.20;;;;;;5017466;28;20025;-77
2021/04/21 12:00:30;;;;;;;2.63;0.52;;;24.10;37.40;;;;;;5048888;28;20029;-79
2021/04/21 12:02:56;;;;;;;1.95;0.65;;;24.10;37.10;;;;;;5047223;28;20029;-77
2021/04/21 12:05:24;;;;;;;2.97;0.50;;;24.10;37.10;;;;;;5037633;28;20024;-79
2021/04/21 12:07:50;;;;;;;1.23;0.50;;;24.10;35.80;;;;;;5050660;28;20036;-77
2021/04/21 12:10:21;;;;;;;2.20;0.73;;;24.10;36.00;;;;;;5032819;28;20029;-79
2021/04/21 12:12:46;;;;;;;1.80;0.57;;;24.10;36.20;;;;;;5050675;28;20485;-77
2021/04/21 12:15:14;;;;;;;4.75;0.60;;;24.10;35.40;;;;;;5035477;28;20025;-77
2021/04/21 12:17:54;;;;;;;1.08;0.30;;;24.10;35.10;;;;;;5048341;28;20111;-76
2021/04/21 12:20:29;;;;;;;1.20;0.50;;;24.10;35.60;;;;;;5049206;28;20035;-75
2021/04/21 12:22:55;;;;;;;1.50;0.35;;;24.00;35.40;;;;;;5051863;28;20401;-79
2021/04/21 12:25:27;;;;;;;3.00;0.52;;;24.10;37.50;;;;;;5030311;28;20060;-79
2021/04/21 12:27:55;;;;;;;1.17;0.60;;;24.10;37.10;;;;;;5051737;28;20034;-81
2021/04/21 12:30:25;;;;;;;1.15;0.30;;;24.20;37.20;;;;;;5052928;28;20025;-78
2021/04/21 12:32:51;;;;;;;3.50;0.50;;;24.20;37.00;;;;;;5056658;28;20039;-77
2021/04/21 12:35:20;;;;;;;1.33;0.43;;;24.20;37.50;;;;;;5053562;28;20091;-78
2021/04/21 12:37:55;;;;;;;0.93;0.40;;;24.30;38.00;;;;;;5055270;28;20108;-79
2021/04/21 12:40:24;;;;;;;1.05;0.35;;;24.30;37.90;;;;;;5058264;28;20039;-80
2021/04/21 12:42:51;;;;;;;1.33;0.40;;;24.30;37.90;;;;;;5074615;28;20082;-82
2021/04/21 12:45:28;;;;;;;1.38;0.32;;;24.30;37.90;;;;;;5059040;28;20028;-82
2021/04/21 12:47:54;;;;;;;2.55;0.50;;;24.30;37.90;;;;;;5061516;28;20048;-80
2021/04/21 12:50:31;;;;;;;0.90;0.50;;;24.30;38.30;;;;;;5076938;28;20017;-81
2021/04/21 12:53:18;;;;;;;2.65;0.40;;;24.30;38.20;;;;;;5037252;28;20041;-77
2021/04/21 12:55:47;;;;;;;3.03;0.47;;;24.30;38.70;;;;;;5050382;28;20033;-79
2021/04/21 12:58:30;;;;;;;2.15;0.32;;;24.30;38.30;;;;;;5042175;28;20025;-80
2021/04/21 13:01:06;;;;;;;0.90;0.50;;;24.20;38.40;;;;;;5033091;28;20055;-78
2021/04/21 13:03:32;;;;;;;2.10;0.40;;;24.20;38.80;;;;;;5054092;28;20029;-79
2021/04/21 13:05:58;;;;;;;1.58;0.30;;;24.20;38.40;;;;;;5053178;28;20040;-80
2021/04/21 13:08:25;;;;;;;1.75;0.50;;;24.30;37.90;;;;;;5040524;28;21448;-82
2021/04/21 13:10:52;;;;;;;3.33;0.68;;;24.30;38.60;;;;;;5040781;28;20060;-81
2021/04/21 13:13:35;;;;;;;4.63;0.45;;;24.30;38.80;;;;;;5048290;28;20025;-81
2021/04/21 13:16:02;;;;;;;3.25;0.57;;;24.30;39.00;;;;;;5050727;28;20508;-77
2021/04/21 13:18:35;;;;;;;3.95;0.50;;;24.30;38.90;;;;;;5049484;28;20029;-78
2021/04/21 13:21:07;;;;;;;1.35;0.57;;;24.40;38.90;;;;;;5054018;28;20088;-78
2021/04/21 13:23:33;;;;;;;1.60;0.30;;;24.30;39.30;;;;;;5047129;28;20035;-78